createdAt,value
2023-03-26T00:02:01.904Z,2.75
2023-03-26T00:05:05.365Z,3.00
2023-03-26T00:08:11.463Z,2.47
2023-03-26T00:11:16.068Z,2.77
2023-03-26T00:14:18.794Z,4.40
2023-03-26T00:17:21.566Z,3.15
2023-03-26T00:20:24.340Z,2.93
2023-03-26T00:23:28.431Z,2.95
2023-03-26T00:26:32.067Z,2.78
2023-03-26T00:29:36.100Z,1.83
2023-03-26T00:32:38.899Z,3.45
2023-03-26T00:35:43.305Z,2.25
2023-03-26T00:38:48.010Z,3.20
2023-03-26T00:41:54.553Z,2.63
2023-03-26T00:45:00.642Z,1.65
2023-03-26T00:48:04.257Z,1.23
2023-03-26T00:51:08.848Z,5.93
2023-03-26T00:54:11.968Z,4.57
2023-03-26T00:57:22.602Z,2.60
2023-03-26T01:00:36.517Z,1.75
2023-03-26T01:03:39.641Z,0.95
2023-03-26T01:06:43.420Z,2.05
2023-03-26T01:09:50.487Z,1.10
2023-03-26T01:12:53.127Z,1.67
2023-03-26T01:15:57.926Z,1.92
2023-03-26T01:19:01.036Z,2.20
2023-03-26T01:22:05.367Z,3.37
2023-03-26T01:25:09.664Z,3.13
2023-03-26T01:28:12.997Z,2.50
2023-03-26T01:31:29.900Z,1.98
2023-03-26T01:34:54.282Z,1.23
2023-03-26T01:38:11.908Z,1.33
2023-03-26T01:41:24.552Z,1.30
2023-03-26T01:44:41.600Z,1.80
2023-03-26T01:47:45.733Z,3.47
2023-03-26T01:50:51.387Z,2.53
2023-03-26T01:53:55.414Z,2.40
2023-03-26T01:57:35.423Z,3.03
2023-03-26T02:00:45.970Z,3.72
2023-03-26T02:03:59.131Z,2.05
2023-03-26T02:07:18.045Z,2.17
2023-03-26T02:10:27.016Z,1.58
2023-03-26T02:13:30.399Z,2.85
2023-03-26T02:16:33.346Z,2.50
2023-03-26T02:19:37.475Z,1.85
2023-03-26T02:22:41.827Z,1.85
2023-03-26T02:25:46.506Z,1.90
2023-03-26T02:28:49.574Z,3.63
2023-03-26T02:31:52.297Z,4.85
2023-03-26T02:34:54.912Z,2.30
2023-03-26T02:37:57.506Z,3.25
2023-03-26T02:41:01.253Z,2.45
2023-03-26T02:44:13.525Z,1.90
2023-03-26T02:47:39.321Z,1.70
2023-03-26T02:51:06.793Z,5.55
2023-03-26T02:54:28.192Z,2.50
2023-03-26T02:57:38.290Z,3.00
2023-03-26T03:00:56.761Z,3.13
2023-03-26T03:04:08.418Z,6.53
2023-03-26T03:07:14.572Z,3.20
2023-03-26T03:10:21.940Z,2.00
2023-03-26T03:13:47.941Z,1.15
2023-03-26T03:16:57.947Z,0.93
2023-03-26T03:20:01.058Z,0.53
2023-03-26T03:23:04.062Z,1.92
2023-03-26T03:26:14.396Z,1.35
2023-03-26T03:29:18.842Z,1.90
2023-03-26T03:32:23.027Z,2.72
2023-03-26T03:35:30.179Z,1.65
2023-03-26T03:38:35.019Z,0.68
2023-03-26T03:41:37.633Z,0.77
2023-03-26T03:44:43.072Z,2.15
2023-03-26T03:47:59.083Z,4.28
2023-03-26T03:51:21.075Z,0.60
2023-03-26T03:54:34.643Z,2.35
2023-03-26T03:57:54.867Z,1.85
2023-03-26T04:01:01.048Z,1.23
2023-03-26T04:04:35.754Z,2.30
2023-03-26T04:07:40.059Z,0.95
2023-03-26T04:10:44.136Z,1.25
2023-03-26T04:13:52.398Z,0.93
2023-03-26T04:17:02.357Z,1.95
2023-03-26T04:20:08.864Z,0.95
2023-03-26T04:23:14.266Z,0.73
2023-03-26T04:26:20.525Z,1.90
2023-03-26T04:29:45.790Z,1.27
2023-03-26T04:32:54.233Z,1.47
2023-03-26T04:36:01.712Z,0.80
2023-03-26T04:39:07.059Z,0.60
2023-03-26T04:42:48.055Z,0.85
2023-03-26T04:46:03.366Z,0.50
2023-03-26T04:49:10.304Z,1.85
2023-03-26T04:52:14.597Z,2.05
2023-03-26T04:55:53.567Z,2.43
2023-03-26T04:59:19.531Z,1.02
2023-03-26T05:02:22.165Z,2.55
2023-03-26T05:05:31.350Z,1.23
2023-03-26T05:08:35.385Z,2.22
2023-03-26T05:11:38.293Z,1.77
2023-03-26T05:14:41.302Z,2.15
2023-03-26T05:17:51.445Z,0.90
2023-03-26T05:21:03.234Z,0.73
2023-03-26T05:24:07.769Z,2.15
2023-03-26T05:27:17.164Z,1.33
2023-03-26T05:30:22.443Z,1.73
2023-03-26T05:33:30.429Z,2.05
2023-03-26T05:36:40.870Z,0.40
2023-03-26T05:40:04.344Z,0.63
2023-03-26T05:43:33.802Z,0.70
2023-03-26T05:46:42.858Z,0.93
2023-03-26T05:49:49.440Z,1.08
2023-03-26T05:52:52.545Z,0.93
2023-03-26T05:56:13.476Z,1.25
2023-03-26T05:59:35.387Z,1.10
2023-03-26T06:02:57.411Z,1.05
2023-03-26T06:06:20.888Z,0.73
2023-03-26T06:09:31.956Z,1.27
2023-03-26T06:12:35.019Z,1.02
2023-03-26T06:15:37.887Z,0.63
2023-03-26T06:19:03.682Z,0.30
2023-03-26T06:22:22.902Z,0.93
2023-03-26T06:25:51.916Z,1.40
2023-03-26T06:29:12.478Z,1.70
2023-03-26T06:32:28.191Z,1.43
2023-03-26T06:35:40.069Z,1.27
2023-03-26T06:38:42.894Z,0.55
2023-03-26T06:41:46.521Z,1.23
2023-03-26T06:44:59.472Z,1.80
2023-03-26T06:48:11.147Z,1.77
2023-03-26T06:51:41.265Z,1.02
2023-03-26T06:54:43.837Z,1.10
2023-03-26T06:58:02.336Z,2.67
2023-03-26T07:01:14.137Z,2.65
2023-03-26T07:04:35.491Z,1.73
2023-03-26T07:07:56.861Z,2.72
2023-03-26T07:11:32.295Z,1.58
2023-03-26T07:14:53.395Z,2.07
2023-03-26T07:18:18.561Z,1.42
2023-03-26T07:21:22.775Z,1.75
2023-03-26T07:24:26.070Z,0.60
2023-03-26T07:27:59.836Z,1.50
2023-03-26T07:31:37.278Z,1.38
2023-03-26T07:35:15.541Z,2.17
2023-03-26T07:39:08.952Z,1.80
2023-03-26T07:42:55.975Z,1.30
2023-03-26T07:46:18.985Z,1.45
2023-03-26T07:49:30.384Z,3.17
2023-03-26T07:52:58.355Z,1.45
2023-03-26T07:56:20.602Z,1.45
2023-03-26T08:00:12.296Z,2.25
2023-03-26T08:03:42.390Z,1.70
2023-03-26T08:06:54.076Z,2.90
2023-03-26T08:10:23.724Z,2.13
2023-03-26T08:13:34.749Z,2.77
2023-03-26T08:16:46.008Z,2.83
2023-03-26T08:19:49.278Z,2.72
2023-03-26T08:23:02.249Z,0.67
2023-03-26T08:26:25.808Z,1.23
2023-03-26T08:29:41.301Z,1.48
2023-03-26T08:32:49.962Z,2.25
2023-03-26T08:35:52.623Z,1.80
2023-03-26T08:38:57.503Z,1.55
2023-03-26T08:42:32.038Z,2.10
2023-03-26T08:46:13.424Z,1.33
2023-03-26T08:49:48.194Z,2.00
2023-03-26T08:53:23.296Z,1.50
2023-03-26T08:57:06.034Z,2.17
2023-03-26T09:00:52.538Z,3.17
2023-03-26T09:04:40.150Z,1.42
2023-03-26T09:08:16.008Z,1.48
2023-03-26T09:11:56.010Z,1.58
2023-03-26T09:15:13.618Z,2.05
2023-03-26T09:18:28.122Z,1.23
2023-03-26T09:21:48.822Z,1.90
2023-03-26T09:25:16.331Z,1.40
2023-03-26T09:28:41.890Z,1.20
2023-03-26T09:32:09.512Z,2.67
2023-03-26T09:35:15.537Z,1.48
2023-03-26T09:38:43.466Z,3.05
2023-03-26T09:42:22.271Z,1.25
2023-03-26T09:45:39.930Z,0.93
2023-03-26T09:48:42.625Z,2.72
2023-03-26T09:52:34.454Z,0.88
2023-03-26T09:55:45.412Z,0.70
2023-03-26T09:59:29.253Z,2.75
2023-03-26T10:02:48.007Z,1.80
2023-03-26T10:05:57.582Z,1.07
2023-03-26T10:09:08.620Z,0.82
2023-03-26T10:12:35.276Z,0.57
2023-03-26T10:15:43.624Z,0.50
2023-03-26T10:18:58.470Z,0.85
2023-03-26T10:22:17.814Z,0.88
2023-03-26T10:25:23.489Z,1.10
2023-03-26T10:28:45.446Z,0.73
2023-03-26T10:31:57.739Z,1.58
2023-03-26T10:35:19.088Z,1.25
2023-03-26T10:39:03.684Z,1.87
2023-03-26T10:42:40.856Z,2.05
2023-03-26T10:46:04.963Z,1.83
2023-03-26T10:49:41.155Z,1.90
2023-03-26T10:53:03.297Z,1.25
2023-03-26T10:56:32.639Z,1.65
2023-03-26T10:59:35.355Z,1.42
2023-03-26T11:02:44.938Z,3.03
2023-03-26T11:06:25.600Z,1.45
2023-03-26T11:09:42.223Z,1.75
2023-03-26T11:13:23.250Z,1.50
2023-03-26T11:16:31.011Z,1.13
2023-03-26T11:19:53.210Z,2.13
2023-03-26T11:23:01.976Z,2.63
2023-03-26T11:26:10.312Z,2.53
2023-03-26T11:29:31.098Z,0.90
2023-03-26T11:32:43.914Z,0.50
2023-03-26T11:35:53.216Z,0.37
2023-03-26T11:38:59.723Z,0.73
2023-03-26T11:42:11.404Z,0.73
2023-03-26T11:45:24.288Z,0.73
2023-03-26T11:48:41.982Z,0.50
2023-03-26T11:51:47.955Z,0.65
2023-03-26T11:54:51.102Z,0.40
2023-03-26T11:57:58.559Z,1.55
2023-03-26T12:01:05.583Z,3.22
2023-03-26T12:04:15.863Z,2.72
2023-03-26T12:07:40.263Z,1.83
2023-03-26T12:10:43.437Z,1.83
2023-03-26T12:13:59.647Z,1.50
2023-03-26T12:17:12.598Z,1.53
2023-03-26T12:20:24.938Z,1.75
2023-03-26T12:23:56.483Z,2.97
2023-03-26T12:27:21.030Z,2.65
2023-03-26T12:30:33.992Z,2.97
2023-03-26T12:33:39.023Z,2.58
2023-03-26T12:36:49.462Z,3.35
2023-03-26T12:40:12.967Z,2.80
2023-03-26T12:44:53.907Z,2.25
2023-03-26T12:47:58.246Z,1.55
2023-03-26T12:51:13.151Z,0.97
2023-03-26T12:54:52.943Z,1.00
2023-03-26T12:58:13.729Z,5.20
2023-03-26T13:01:26.371Z,3.38
2023-03-26T13:05:06.501Z,2.35
2023-03-26T13:08:40.623Z,1.90
2023-03-26T13:11:58.569Z,2.95
2023-03-26T13:15:19.564Z,1.80
2023-03-26T13:18:27.900Z,1.77
2023-03-26T13:21:39.314Z,3.13
2023-03-26T13:24:46.415Z,4.13
2023-03-26T13:28:10.906Z,3.38
2023-03-26T13:31:23.298Z,3.17
2023-03-26T13:34:33.574Z,1.20
2023-03-26T13:37:45.531Z,1.38
2023-03-26T13:41:03.342Z,1.85
2023-03-26T13:44:42.422Z,2.65
2023-03-26T13:47:50.395Z,1.37
2023-03-26T13:51:14.798Z,2.05
2023-03-26T13:54:40.547Z,2.05
2023-03-26T13:57:48.862Z,1.23
2023-03-26T14:01:17.001Z,1.80
2023-03-26T14:04:58.492Z,3.15
2023-03-26T14:08:27.215Z,2.35
2023-03-26T14:12:22.080Z,0.40
2023-03-26T14:15:41.345Z,1.30
2023-03-26T14:18:56.652Z,2.95
2023-03-26T14:22:26.449Z,1.60
2023-03-26T14:25:50.797Z,8.73
2023-03-26T14:29:13.838Z,2.15
2023-03-26T14:32:50.800Z,3.10
2023-03-26T14:36:11.952Z,1.00
2023-03-26T14:39:23.666Z,0.60
2023-03-26T14:42:48.024Z,3.35
2023-03-26T14:46:05.685Z,1.02
2023-03-26T14:49:20.141Z,2.05
2023-03-26T14:52:39.519Z,1.80
2023-03-26T14:55:54.172Z,4.00
2023-03-26T14:59:47.591Z,0.82
2023-03-26T15:03:11.593Z,1.77
2023-03-26T15:06:35.052Z,1.83
2023-03-26T15:10:05.806Z,2.80
2023-03-26T15:13:30.053Z,2.78
2023-03-26T15:16:32.875Z,4.53
2023-03-26T15:20:10.855Z,1.60
2023-03-26T15:23:33.780Z,4.07
2023-03-26T15:26:58.799Z,6.00
2023-03-26T15:30:13.829Z,2.13
2023-03-26T15:33:50.867Z,6.55
2023-03-26T15:37:22.519Z,8.65
2023-03-26T15:40:30.105Z,7.73
2023-03-26T15:44:23.127Z,5.25
2023-03-26T15:47:58.230Z,6.20
2023-03-26T15:51:46.111Z,4.72
2023-03-26T15:54:56.241Z,3.67
2023-03-26T15:58:14.268Z,4.35
2023-03-26T16:01:38.148Z,6.22
2023-03-26T16:05:19.411Z,3.53
2023-03-26T16:08:38.699Z,5.25
2023-03-26T16:12:03.141Z,4.20
2023-03-26T16:15:06.103Z,10.43
2023-03-26T16:18:10.423Z,11.50
2023-03-26T16:21:32.082Z,4.00
2023-03-26T16:24:40.345Z,7.70
2023-03-26T16:27:44.638Z,4.60
2023-03-26T16:31:23.569Z,5.93
2023-03-26T16:34:47.884Z,33.00
2023-03-26T16:38:05.867Z,30.57
2023-03-26T16:41:50.157Z,16.77
2023-03-26T16:45:21.791Z,13.00
2023-03-26T16:48:49.667Z,9.13
2023-03-26T16:52:27.810Z,12.77
2023-03-26T16:56:08.862Z,17.38
2023-03-26T16:59:40.042Z,6.45
2023-03-26T17:03:08.050Z,5.65
2023-03-26T17:06:47.914Z,7.03
2023-03-26T17:10:03.489Z,8.35
2023-03-26T17:13:16.745Z,6.37
2023-03-26T17:16:23.637Z,4.32
2023-03-26T17:19:58.297Z,4.35
2023-03-26T17:23:22.839Z,3.57
2023-03-26T17:26:31.262Z,7.78
2023-03-26T17:30:04.049Z,9.27
2023-03-26T17:33:38.717Z,6.78
2023-03-26T17:36:43.176Z,8.45
2023-03-26T17:39:46.966Z,5.65
2023-03-26T17:43:08.421Z,7.43
2023-03-26T17:46:25.752Z,7.80
2023-03-26T17:49:33.377Z,8.32
2023-03-26T17:52:49.665Z,10.95
2023-03-26T17:55:53.709Z,9.90
2023-03-26T17:59:11.250Z,8.05
2023-03-26T18:02:21.902Z,6.38
2023-03-26T18:05:28.151Z,6.22
2023-03-26T18:08:46.448Z,7.30
2023-03-26T18:12:13.551Z,7.40
2023-03-26T18:15:54.964Z,10.85
2023-03-26T18:19:01.674Z,10.63
2023-03-26T18:22:07.435Z,6.75
2023-03-26T18:25:22.002Z,6.18
2023-03-26T18:28:34.923Z,6.13
2023-03-26T18:31:42.109Z,6.18
2023-03-26T18:34:53.824Z,7.85
2023-03-26T18:38:00.996Z,6.68
2023-03-26T18:41:08.066Z,8.23
2023-03-26T18:44:17.350Z,11.63
2023-03-26T18:47:21.114Z,14.15
2023-03-26T18:50:41.329Z,14.83
2023-03-26T18:53:54.843Z,12.90
2023-03-26T18:56:58.979Z,12.50
2023-03-26T19:00:23.632Z,12.70
2023-03-26T19:03:28.615Z,9.82
2023-03-26T19:06:38.325Z,7.00
2023-03-26T19:09:43.369Z,7.75
2023-03-26T19:12:46.578Z,8.15
2023-03-26T19:15:52.371Z,4.65
2023-03-26T19:18:59.161Z,5.80
2023-03-26T19:22:04.717Z,5.27
2023-03-26T19:25:17.761Z,4.97
2023-03-26T19:28:31.174Z,5.28
2023-03-26T19:31:37.140Z,4.37
2023-03-26T19:34:40.190Z,3.30
2023-03-26T19:37:51.380Z,6.50
2023-03-26T19:40:58.682Z,6.40
2023-03-26T19:44:12.339Z,3.22
2023-03-26T19:47:19.928Z,6.57
2023-03-26T19:50:28.899Z,3.47
2023-03-26T19:53:37.414Z,4.17
2023-03-26T19:56:43.696Z,3.53
2023-03-26T19:59:50.965Z,3.25
2023-03-26T20:02:54.150Z,4.03
2023-03-26T20:05:57.535Z,2.97
2023-03-26T20:09:01.307Z,4.50
2023-03-26T20:12:04.470Z,4.07
2023-03-26T20:15:28.829Z,4.68
2023-03-26T20:18:31.787Z,5.30
2023-03-26T20:21:41.212Z,3.42
2023-03-26T20:24:47.271Z,3.90
2023-03-26T20:27:53.106Z,2.20
2023-03-26T20:30:57.782Z,4.72
2023-03-26T20:34:00.897Z,1.97
2023-03-26T20:37:04.163Z,2.85
2023-03-26T20:40:08.851Z,4.10
2023-03-26T20:43:18.529Z,3.75
2023-03-26T20:46:31.051Z,9.65
2023-03-26T20:49:35.070Z,5.18
2023-03-26T20:52:37.849Z,4.18
2023-03-26T20:55:44.014Z,5.40
2023-03-26T20:59:03.616Z,5.00
2023-03-26T21:02:12.070Z,6.10
2023-03-26T21:05:15.034Z,4.00
2023-03-26T21:08:19.570Z,6.38
2023-03-26T21:11:42.443Z,5.20
2023-03-26T21:14:45.247Z,5.97
2023-03-26T21:17:49.239Z,5.78
2023-03-26T21:21:26.895Z,5.75
2023-03-26T21:24:30.432Z,4.95
2023-03-26T21:27:33.885Z,3.97
2023-03-26T21:30:37.644Z,8.07
2023-03-26T21:33:41.089Z,9.23
2023-03-26T21:36:43.998Z,6.43
2023-03-26T21:39:46.947Z,4.85
2023-03-26T21:42:51.684Z,5.43
2023-03-26T21:45:54.936Z,3.85
2023-03-26T21:48:57.941Z,2.75
2023-03-26T21:52:01.040Z,4.43
2023-03-26T21:55:05.961Z,4.30
2023-03-26T21:58:14.368Z,3.87
2023-03-26T22:01:25.315Z,3.30
2023-03-26T22:04:41.872Z,4.25
2023-03-26T22:07:47.186Z,4.13
2023-03-26T22:10:50.528Z,5.80
2023-03-26T22:13:53.483Z,4.38
2023-03-26T22:16:56.058Z,9.23
2023-03-26T22:19:58.644Z,8.60
2023-03-26T22:23:01.951Z,4.68
2023-03-26T22:26:06.020Z,7.53
2023-03-26T22:29:09.658Z,4.17
2023-03-26T22:32:12.293Z,4.88
2023-03-26T22:35:14.901Z,5.55
2023-03-26T22:38:17.986Z,4.93
2023-03-26T22:41:21.821Z,3.78
2023-03-26T22:44:24.468Z,3.10
2023-03-26T22:47:27.290Z,4.65
2023-03-26T22:50:30.201Z,4.90
2023-03-26T22:53:32.864Z,3.72
2023-03-26T22:56:36.401Z,3.03
2023-03-26T22:59:39.051Z,4.07
2023-03-26T23:02:42.335Z,2.78
2023-03-26T23:05:56.114Z,4.18
2023-03-26T23:08:59.048Z,3.00
2023-03-26T23:12:02.208Z,4.18
2023-03-26T23:15:06.188Z,3.28
2023-03-26T23:18:08.808Z,3.05
2023-03-26T23:21:16.387Z,2.42
2023-03-26T23:24:18.937Z,5.13
2023-03-26T23:27:22.890Z,3.08
2023-03-26T23:30:27.787Z,2.20
2023-03-26T23:33:35.296Z,3.80
2023-03-26T23:36:37.919Z,4.18
2023-03-26T23:39:40.530Z,2.57
2023-03-26T23:42:43.275Z,4.57
2023-03-26T23:45:49.178Z,2.53
2023-03-26T23:48:52.253Z,4.40
2023-03-26T23:51:54.982Z,3.17
2023-03-26T23:54:59.820Z,2.85
2023-03-26T23:58:03.462Z,3.28
